Cozaddale, Ohio
Current Conditions -  °F | °C
As of 8:53 PM on Monday 22 Dec 2014 (Local Time) from KLUK Reporting Station
Clear Clear  
Wind Chill: 45°   Ceiling: Unl
Heat Index: 45°   Visibility: 10mi
Dew Point: 37°   Wind: 3mph
Humidity: 74%   Direction: NA
Pressure: 29.78"   Gusts: NA
Location:  39.2233°N, 84.1209°W
Report Text: KLUK 230153Z VRB03KT 10SM CLR 07/03 A2978 RMK AO2 SLP088 T00720028
Loading
Personal Weather Stations






























Interactive Weather Map New forecast layout! Learn more

10-Day Weather Forecast

Advertisements
Track Severe Weather on mobile